Time;durP1;ratioP1;P1;durP2;ratioP2;P2;SDS_P1;SDS_P2;PMS_P1;PMS_P2;Temp;Humidity;BMP_temperature;BMP_pressure;BME280_temperature;BME280_humidity;BME280_pressure;Samples;Min_cycle;Max_cycle;Signal;HPM_P1;HPM_P2
2023/07/21 00:01:09;;;;;;;5.97;2.63;;;15.60;3.70;;;;;;5059768;28;20429;-69
2023/07/21 00:03:35;;;;;;;5.55;2.90;;;15.50;99.90;;;;;;5047958;28;20420;-68
2023/07/21 00:06:06;;;;;;;4.80;2.67;;;15.50;99.90;;;;;;5054777;28;20466;-68
2023/07/21 00:08:32;;;;;;;6.53;2.85;;;15.40;1.00;;;;;;5046356;28;20398;-68
2023/07/21 00:10:58;;;;;;;5.35;2.63;;;15.40;99.90;;;;;;5047232;28;20492;-68
2023/07/21 00:13:24;;;;;;;6.45;2.63;;;15.30;99.90;;;;;;5046663;28;20413;-68
2023/07/21 00:15:50;;;;;;;5.50;2.58;;;15.30;1.00;;;;;;5047266;28;20409;-68
2023/07/21 00:18:16;;;;;;;4.73;2.30;;;15.30;82.30;;;;;;5045837;28;20405;-68
2023/07/21 00:20:42;;;;;;;4.83;2.40;;;15.20;99.90;;;;;;5047719;28;20825;-69
2023/07/21 00:23:07;;;;;;;5.93;2.33;;;15.20;99.90;;;;;;5047649;28;20425;-68
2023/07/21 00:25:33;;;;;;;5.47;2.33;;;15.20;1.00;;;;;;5051191;28;20414;-68
2023/07/21 00:27:59;;;;;;;4.10;2.10;;;15.10;1.00;;;;;;5048440;28;20409;-68
2023/07/21 00:30:24;;;;;;;4.90;2.30;;;15.10;1.00;;;;;;5047639;28;20409;-68
2023/07/21 00:32:50;;;;;;;5.47;2.30;;;15.10;99.90;;;;;;5047619;28;20404;-68
2023/07/21 00:35:16;;;;;;;5.07;2.22;;;15.10;1.00;;;;;;5047579;28;20408;-69
2023/07/21 00:37:42;;;;;;;6.53;2.60;;;15.00;1.00;;;;;;5057340;28;20397;-69
2023/07/21 00:40:22;;;;;;;4.63;2.10;;;15.00;1.00;;;;;;5047093;28;20437;-69
2023/07/21 00:42:48;;;;;;;3.75;2.28;;;15.00;49.60;;;;;;5039304;28;20429;-68
2023/07/21 00:45:14;;;;;;;4.32;2.28;;;14.90;72.30;;;;;;5045973;28;20448;-68
2023/07/21 00:47:41;;;;;;;4.33;2.33;;;14.90;74.90;;;;;;5054412;28;20463;-68
2023/07/21 00:50:08;;;;;;;5.55;2.53;;;14.90;99.90;;;;;;5047094;28;20421;-68
2023/07/21 00:52:34;;;;;;;4.38;2.55;;;14.90;99.90;;;;;;5048521;28;20462;-68
2023/07/21 00:55:01;;;;;;;5.00;2.42;;;14.80;99.90;;;;;;5047810;28;20410;-68
2023/07/21 00:57:27;;;;;;;5.23;2.87;;;14.80;99.90;;;;;;5047783;28;20422;-68
2023/07/21 00:59:52;;;;;;;5.00;2.60;;;14.70;99.90;;;;;;5047045;28;20527;-68
2023/07/21 01:02:18;;;;;;;7.53;2.85;;;14.80;99.90;;;;;;5046356;28;20504;-68
2023/07/21 01:04:44;;;;;;;4.80;2.65;;;14.80;99.90;;;;;;5046394;28;20895;-68
2023/07/21 01:07:11;;;;;;;4.63;2.57;;;14.80;99.90;;;;;;5047334;28;20440;-68
2023/07/21 01:09:38;;;;;;;5.38;2.70;;;14.70;99.90;;;;;;5047118;28;20417;-68
2023/07/21 01:12:06;;;;;;;7.68;2.80;;;14.70;99.90;;;;;;5063293;28;20415;-67
2023/07/21 01:14:33;;;;;;;5.73;2.70;;;14.60;99.90;;;;;;5045564;28;20451;-68
2023/07/21 01:17:01;;;;;;;5.27;2.90;;;14.60;99.90;;;;;;5046810;28;20878;-68
2023/07/21 01:19:28;;;;;;;6.65;2.70;;;14.60;99.90;;;;;;5064727;28;20796;-68
2023/07/21 01:22:02;;;;;;;5.30;2.43;;;14.60;1.00;;;;;;5071129;28;20438;-68
2023/07/21 01:25:07;;;;;;;5.25;2.80;;;14.60;1.00;;;;;;5070591;28;21144;-68
2023/07/21 01:27:39;;;;;;;5.60;3.20;;;14.50;2.10;;;;;;4986906;28;20504;-68
2023/07/21 01:30:10;;;;;;;5.00;2.63;;;14.60;30.50;;;;;;5042654;28;20439;-69
2023/07/21 01:32:38;;;;;;;5.50;2.70;;;14.50;60.70;;;;;;5057513;28;20408;-68
2023/07/21 01:35:08;;;;;;;5.85;2.78;;;14.50;76.60;;;;;;5070318;28;20395;-68
2023/07/21 01:37:38;;;;;;;6.45;2.92;;;14.40;90.40;;;;;;5070452;28;20481;-68
2023/07/21 01:40:08;;;;;;;6.45;2.92;;;14.40;99.90;;;;;;5070201;28;20776;-68
2023/07/21 01:42:35;;;;;;;5.13;2.77;;;14.40;99.90;;;;;;5077991;28;20422;-68
2023/07/21 01:45:04;;;;;;;6.25;2.92;;;14.40;99.90;;;;;;5069976;28;20449;-68
2023/07/21 01:47:33;;;;;;;6.10;2.72;;;14.30;99.90;;;;;;5079630;28;20414;-68
2023/07/21 01:50:00;;;;;;;6.18;3.20;;;14.30;99.90;;;;;;5073057;28;20546;-66
2023/07/21 01:52:31;;;;;;;3.97;2.70;;;14.30;99.90;;;;;;5088299;28;20409;-68
2023/07/21 01:55:06;;;;;;;5.72;3.05;;;14.30;99.90;;;;;;5070367;28;20773;-68
2023/07/21 01:57:36;;;;;;;5.05;3.33;;;14.30;99.90;;;;;;5052281;28;20428;-67
2023/07/21 02:00:06;;;;;;;6.53;3.13;;;14.20;99.90;;;;;;5069160;28;20537;-68
2023/07/21 02:02:32;;;;;;;5.40;3.17;;;14.20;99.90;;;;;;5063784;28;20422;-68
2023/07/21 02:04:58;;;;;;;6.05;3.13;;;14.20;99.90;;;;;;5071857;28;20400;-68
2023/07/21 02:07:24;;;;;;;5.50;3.43;;;14.20;99.90;;;;;;5080144;28;20485;-68
2023/07/21 02:09:51;;;;;;;5.85;3.40;;;14.20;99.90;;;;;;5051518;28;20396;-68
2023/07/21 02:12:16;;;;;;;6.68;3.40;;;14.10;99.90;;;;;;5073358;28;20405;-68
2023/07/21 02:14:42;;;;;;;5.80;3.30;;;14.10;99.90;;;;;;5069020;28;20761;-68
2023/07/21 02:17:08;;;;;;;7.57;3.40;;;14.10;99.90;;;;;;5070987;28;20416;-68
2023/07/21 02:19:34;;;;;;;6.18;3.63;;;14.10;99.90;;;;;;5068495;28;20427;-69
2023/07/21 02:22:00;;;;;;;7.45;3.85;;;14.10;99.90;;;;;;5070591;28;20431;-69
2023/07/21 02:24:26;;;;;;;5.82;3.55;;;14.00;99.90;;;;;;5055388;28;20483;-69
2023/07/21 02:26:51;;;;;;;5.15;3.35;;;14.00;99.90;;;;;;5057076;28;20434;-69
2023/07/21 02:29:17;;;;;;;6.70;3.87;;;14.00;99.90;;;;;;5057133;28;20415;-69
2023/07/21 02:31:43;;;;;;;6.87;3.77;;;14.00;99.90;;;;;;5058853;28;20972;-69
2023/07/21 02:34:08;;;;;;;4.93;3.50;;;13.90;99.90;;;;;;5070479;28;20770;-69
2023/07/21 02:36:34;;;;;;;5.67;3.40;;;13.90;99.90;;;;;;5067757;28;20491;-68
2023/07/21 02:39:00;;;;;;;6.88;3.58;;;14.00;99.90;;;;;;5068922;28;20466;-69
2023/07/21 02:41:26;;;;;;;6.13;3.67;;;13.90;99.90;;;;;;5075664;28;20774;-69
2023/07/21 02:43:51;;;;;;;7.47;3.53;;;13.90;99.90;;;;;;5084515;28;20448;-69
2023/07/21 02:46:17;;;;;;;7.63;4.20;;;13.90;99.90;;;;;;5056231;28;20952;-68
2023/07/21 02:48:43;;;;;;;5.63;4.10;;;13.80;99.90;;;;;;5059154;28;20403;-69
2023/07/21 02:51:09;;;;;;;5.57;4.10;;;13.80;99.90;;;;;;5069256;28;20775;-69
2023/07/21 02:53:34;;;;;;;7.07;4.70;;;13.80;99.90;;;;;;5068996;28;20402;-68
2023/07/21 02:56:03;;;;;;;7.87;4.57;;;13.80;99.90;;;;;;5072845;28;20865;-69
2023/07/21 02:58:29;;;;;;;6.80;4.72;;;13.70;99.90;;;;;;5068499;28;20437;-68
2023/07/21 03:00:55;;;;;;;10.73;5.10;;;13.70;99.90;;;;;;5068570;28;20423;-69
2023/07/21 03:03:24;;;;;;;7.93;4.80;;;13.70;99.90;;;;;;5068416;28;20431;-68
2023/07/21 03:05:49;;;;;;;8.60;4.55;;;13.70;99.90;;;;;;5072679;28;20421;-69
2023/07/21 03:08:15;;;;;;;7.33;4.67;;;13.70;99.90;;;;;;5053267;28;20404;-69
2023/07/21 03:10:41;;;;;;;7.70;4.50;;;13.60;99.90;;;;;;5068078;28;20927;-68
2023/07/21 03:13:06;;;;;;;5.73;4.43;;;13.60;99.90;;;;;;5068273;28;20396;-69
2023/07/21 03:15:32;;;;;;;6.72;4.75;;;13.60;99.90;;;;;;5050448;28;20457;-69
2023/07/21 03:17:58;;;;;;;8.10;4.80;;;13.60;99.90;;;;;;5069285;28;20502;-69
2023/07/21 03:20:23;;;;;;;6.20;4.38;;;13.60;99.90;;;;;;5050646;28;20499;-68
2023/07/21 03:22:49;;;;;;;8.70;4.77;;;13.60;99.90;;;;;;5067917;28;20431;-69
2023/07/21 03:25:14;;;;;;;5.93;4.20;;;13.60;99.90;;;;;;5050100;28;20419;-68
2023/07/21 03:27:40;;;;;;;6.88;4.40;;;13.60;99.90;;;;;;5087434;28;20446;-68
2023/07/21 03:30:07;;;;;;;7.07;4.57;;;13.50;99.90;;;;;;5067588;28;21027;-69
2023/07/21 03:32:34;;;;;;;6.55;4.70;;;13.50;99.90;;;;;;5077678;28;20451;-69
2023/07/21 03:35:02;;;;;;;6.72;4.10;;;13.50;99.90;;;;;;5066921;28;20418;-68
2023/07/21 03:37:30;;;;;;;6.82;4.60;;;13.50;99.90;;;;;;5068516;28;20412;-68
2023/07/21 03:39:56;;;;;;;5.57;4.25;;;13.50;99.90;;;;;;5057257;28;20405;-69
2023/07/21 03:42:23;;;;;;;7.70;4.63;;;13.60;99.90;;;;;;5073281;28;20928;-68
2023/07/21 03:44:49;;;;;;;5.97;4.05;;;13.50;99.90;;;;;;5068098;28;20407;-69
2023/07/21 03:47:17;;;;;;;6.10;4.35;;;13.50;99.90;;;;;;5072760;28;20762;-68
2023/07/21 03:49:43;;;;;;;6.60;4.10;;;13.50;99.90;;;;;;5083795;28;20392;-68
2023/07/21 03:52:09;;;;;;;5.63;3.80;;;13.50;99.90;;;;;;5076973;28;20925;-68
2023/07/21 03:54:35;;;;;;;8.95;4.03;;;13.50;99.90;;;;;;5049776;28;20411;-69
2023/07/21 03:57:01;;;;;;;7.13;4.00;;;13.50;99.90;;;;;;5067447;28;20430;-69
2023/07/21 03:59:29;;;;;;;6.28;4.07;;;13.40;99.90;;;;;;5068002;28;20913;-68
2023/07/21 04:01:55;;;;;;;6.72;4.10;;;13.40;99.90;;;;;;5066775;28;20925;-68
2023/07/21 04:04:21;;;;;;;5.35;3.92;;;13.40;99.90;;;;;;5076264;28;20468;-69
2023/07/21 04:06:46;;;;;;;6.60;3.80;;;13.40;99.90;;;;;;5050156;28;20404;-69
2023/07/21 04:09:13;;;;;;;7.75;4.10;;;13.40;99.90;;;;;;5067757;28;20523;-68
2023/07/21 04:11:41;;;;;;;7.82;4.15;;;13.30;99.90;;;;;;5070188;28;20406;-69
2023/07/21 04:14:07;;;;;;;5.85;3.75;;;13.30;99.90;;;;;;5075076;28;20447;-68
2023/07/21 04:16:33;;;;;;;6.77;3.70;;;13.30;99.90;;;;;;5068408;28;20877;-68
2023/07/21 04:18:58;;;;;;;6.65;4.10;;;13.40;99.90;;;;;;5075494;28;20471;-69
2023/07/21 04:21:25;;;;;;;6.10;3.97;;;13.40;99.90;;;;;;5068454;28;20432;-68
2023/07/21 04:23:51;;;;;;;6.90;4.03;;;13.50;99.90;;;;;;5074581;28;20399;-68
2023/07/21 04:26:17;;;;;;;8.20;4.05;;;13.40;99.90;;;;;;5066966;28;20391;-69
2023/07/21 04:28:44;;;;;;;7.95;4.30;;;13.50;99.90;;;;;;5066843;28;20963;-68
2023/07/21 04:31:11;;;;;;;8.10;4.20;;;13.50;99.90;;;;;;5067315;28;20395;-68
2023/07/21 04:33:37;;;;;;;8.82;4.07;;;13.60;99.90;;;;;;5089239;28;20751;-68
2023/07/21 04:36:04;;;;;;;6.38;4.03;;;13.60;99.90;;;;;;5076945;28;20412;-69
2023/07/21 04:38:30;;;;;;;8.98;4.25;;;13.60;99.90;;;;;;5032410;28;20420;-69
2023/07/21 04:40:56;;;;;;;7.93;4.88;;;13.60;99.90;;;;;;5049054;28;20411;-69
2023/07/21 04:43:21;;;;;;;7.93;4.85;;;13.70;99.90;;;;;;5068180;28;20473;-69
2023/07/21 04:45:47;;;;;;;8.25;5.43;;;13.70;99.90;;;;;;5066919;28;20483;-69
2023/07/21 04:48:13;;;;;;;15.20;9.70;;;13.80;99.90;;;;;;5061057;28;20893;-69
2023/07/21 04:50:42;;;;;;;9.95;6.32;;;13.80;99.90;;;;;;5067247;28;20419;-69
2023/07/21 04:53:11;;;;;;;9.30;5.55;;;13.90;99.90;;;;;;5076851;28;20406;-69
2023/07/21 04:55:38;;;;;;;7.70;5.10;;;13.90;99.90;;;;;;5068960;28;20412;-69
2023/07/21 04:58:05;;;;;;;7.20;5.10;;;13.90;99.90;;;;;;5079440;28;20441;-69
2023/07/21 05:00:32;;;;;;;8.20;5.32;;;14.10;99.90;;;;;;5062936;28;20406;-69
2023/07/21 05:02:57;;;;;;;9.55;5.00;;;14.10;99.90;;;;;;5079557;28;20422;-69
2023/07/21 05:05:23;;;;;;;7.13;4.80;;;14.20;99.90;;;;;;5082577;28;20461;-68
2023/07/21 05:07:49;;;;;;;7.60;4.60;;;14.30;99.90;;;;;;5071066;28;20410;-69
2023/07/21 05:10:14;;;;;;;8.82;4.93;;;14.40;99.90;;;;;;5052944;28;20408;-69
2023/07/21 05:12:40;;;;;;;10.60;5.00;;;14.40;99.90;;;;;;5070773;28;20407;-70
2023/07/21 05:15:07;;;;;;;5.72;4.20;;;14.50;99.90;;;;;;5062098;28;20417;-69
2023/07/21 05:17:32;;;;;;;8.60;4.80;;;14.50;99.90;;;;;;5077255;28;20448;-67
2023/07/21 05:19:58;;;;;;;8.05;4.30;;;14.50;99.90;;;;;;5071622;28;20910;-67
2023/07/21 05:22:23;;;;;;;6.80;4.20;;;14.50;99.90;;;;;;5070804;28;20428;-67
2023/07/21 05:24:51;;;;;;;7.55;4.43;;;14.60;99.90;;;;;;5071153;28;20415;-68
2023/07/21 05:27:17;;;;;;;7.50;4.13;;;14.60;99.90;;;;;;5035835;28;20461;-68
2023/07/21 05:29:43;;;;;;;6.22;3.80;;;14.70;99.90;;;;;;5074193;28;20470;-68
2023/07/21 05:32:08;;;;;;;7.87;4.20;;;14.80;99.90;;;;;;5057355;28;20409;-69
2023/07/21 05:34:34;;;;;;;7.28;4.00;;;14.90;99.90;;;;;;5070299;28;20962;-69
2023/07/21 05:37:00;;;;;;;7.27;3.40;;;15.00;99.90;;;;;;5070206;28;20400;-68
2023/07/21 05:39:29;;;;;;;7.63;3.53;;;15.00;99.90;;;;;;5058814;28;20449;-69
2023/07/21 05:41:59;;;;;;;6.00;3.43;;;15.00;99.90;;;;;;5070303;28;20797;-69
2023/07/21 05:44:25;;;;;;;5.60;2.93;;;15.00;99.90;;;;;;5070565;28;20813;-69
2023/07/21 05:46:51;;;;;;;6.10;3.35;;;15.10;99.90;;;;;;5069647;28;20483;-68
2023/07/21 05:49:16;;;;;;;5.23;3.37;;;15.10;99.90;;;;;;5070315;28;20502;-69
2023/07/21 05:51:43;;;;;;;5.43;3.38;;;15.20;99.90;;;;;;5070002;28;20829;-69
2023/07/21 05:54:08;;;;;;;5.53;3.58;;;15.20;99.90;;;;;;5052587;28;20758;-68
2023/07/21 05:56:34;;;;;;;6.60;3.67;;;15.20;99.90;;;;;;5068069;28;20400;-69
2023/07/21 05:59:00;;;;;;;6.65;3.45;;;15.30;99.90;;;;;;5051973;28;20475;-69
2023/07/21 06:01:27;;;;;;;8.50;3.57;;;15.40;99.90;;;;;;5070083;28;20966;-69
2023/07/21 06:03:53;;;;;;;5.93;3.42;;;15.40;99.90;;;;;;5070050;28;20548;-69
2023/07/21 06:06:18;;;;;;;5.85;3.42;;;15.40;99.90;;;;;;5069667;28;20475;-69
2023/07/21 06:08:44;;;;;;;6.97;3.40;;;15.40;99.90;;;;;;5069465;28;20803;-68
2023/07/21 06:11:10;;;;;;;7.75;3.70;;;15.40;99.90;;;;;;5069600;28;21477;-69
2023/07/21 06:13:36;;;;;;;4.68;3.30;;;15.50;99.90;;;;;;5069858;28;21007;-69
2023/07/21 06:16:01;;;;;;;6.43;3.30;;;15.50;99.90;;;;;;5069683;28;20438;-68
2023/07/21 06:18:27;;;;;;;7.53;3.60;;;15.50;99.90;;;;;;5051795;28;20408;-68
2023/07/21 06:20:53;;;;;;;8.48;3.60;;;15.60;99.90;;;;;;5069378;28;20396;-69
2023/07/21 06:23:19;;;;;;;6.27;3.70;;;15.70;99.90;;;;;;5069500;28;20420;-69
2023/07/21 06:25:45;;;;;;;6.32;3.60;;;15.80;99.90;;;;;;5069121;28;20424;-69
2023/07/21 06:28:12;;;;;;;6.65;3.53;;;15.90;99.90;;;;;;5070035;28;20407;-69
2023/07/21 06:30:37;;;;;;;7.03;3.60;;;16.00;99.90;;;;;;5068648;28;20404;-68
2023/07/21 06:33:05;;;;;;;6.25;3.50;;;16.10;99.90;;;;;;5051201;28;20453;-69
2023/07/21 06:35:31;;;;;;;5.88;3.15;;;16.00;99.90;;;;;;5069076;28;20477;-69
2023/07/21 06:37:57;;;;;;;6.95;3.08;;;16.10;99.90;;;;;;5061310;28;20427;-69
2023/07/21 06:40:23;;;;;;;5.05;2.45;;;16.10;99.90;;;;;;5065250;28;20482;-69
2023/07/21 06:42:49;;;;;;;4.57;2.50;;;16.20;99.90;;;;;;5069111;28;20932;-69
2023/07/21 06:45:16;;;;;;;6.13;2.87;;;16.30;99.90;;;;;;5068704;28;20410;-69
2023/07/21 06:47:42;;;;;;;7.32;3.15;;;16.30;99.90;;;;;;5051016;28;20474;-69
2023/07/21 06:50:09;;;;;;;4.82;2.20;;;16.40;99.90;;;;;;5050213;28;20534;-69
2023/07/21 06:52:35;;;;;;;5.53;2.20;;;16.50;99.90;;;;;;5069247;28;20411;-69
2023/07/21 06:55:01;;;;;;;5.35;2.33;;;16.70;99.90;;;;;;5069087;28;20404;-69
2023/07/21 06:57:27;;;;;;;4.47;1.90;;;16.70;99.90;;;;;;5051123;28;20762;-69
2023/07/21 06:59:53;;;;;;;3.88;1.40;;;16.90;99.90;;;;;;5050102;28;20877;-69
2023/07/21 07:02:19;;;;;;;3.50;1.30;;;17.00;99.90;;;;;;5068658;28;20426;-69
2023/07/21 07:04:44;;;;;;;3.20;1.33;;;17.00;99.90;;;;;;5068730;28;20391;-69
2023/07/21 07:07:10;;;;;;;2.92;1.20;;;17.00;70.60;;;;;;5084628;28;20975;-69
2023/07/21 07:09:36;;;;;;;3.80;1.30;;;17.10;71.20;;;;;;5068516;28;20399;-69
2023/07/21 07:12:03;;;;;;;3.08;1.40;;;17.20;22.60;;;;;;5068588;28;20415;-69
2023/07/21 07:14:30;;;;;;;2.05;0.90;;;17.30;1.00;;;;;;5068323;28;20454;-69
2023/07/21 07:16:55;;;;;;;2.35;0.80;;;17.50;1.00;;;;;;5067988;28;20399;-70
2023/07/21 07:19:21;;;;;;;2.47;0.80;;;17.60;99.90;;;;;;5068153;28;20418;-69
2023/07/21 07:21:47;;;;;;;2.25;0.82;;;17.70;99.90;;;;;;5068329;28;20462;-69
2023/07/21 07:24:13;;;;;;;2.58;1.00;;;17.80;13.80;;;;;;5068150;28;20411;-69
2023/07/21 07:26:39;;;;;;;2.40;1.00;;;17.90;99.90;;;;;;5066315;28;20461;-69
2023/07/21 07:29:04;;;;;;;2.95;1.30;;;18.00;99.90;;;;;;5049565;28;20465;-69
2023/07/21 07:31:31;;;;;;;3.20;1.27;;;18.10;99.90;;;;;;5050024;28;20399;-69
2023/07/21 07:33:57;;;;;;;3.27;1.30;;;18.10;99.90;;;;;;5049527;28;20415;-69
2023/07/21 07:36:22;;;;;;;3.50;1.50;;;18.30;99.90;;;;;;5083346;28;20966;-69
2023/07/21 07:38:48;;;;;;;2.80;1.38;;;18.40;99.90;;;;;;5067348;28;20408;-69
2023/07/21 07:41:14;;;;;;;2.60;1.30;;;18.50;1.00;;;;;;5050090;28;20766;-69
2023/07/21 07:43:39;;;;;;;3.57;1.70;;;18.50;99.90;;;;;;5066546;28;20539;-69
2023/07/21 07:46:08;;;;;;;3.63;1.63;;;18.60;94.70;;;;;;5056801;28;20395;-68
2023/07/21 07:48:37;;;;;;;2.80;1.20;;;18.70;99.90;;;;;;5067835;28;20403;-70
2023/07/21 07:51:04;;;;;;;2.92;1.10;;;18.60;99.90;;;;;;5068032;28;20408;-69
2023/07/21 07:53:31;;;;;;;3.10;0.82;;;18.70;99.90;;;;;;5067393;28;20459;-69
2023/07/21 07:55:57;;;;;;;3.20;1.20;;;18.80;1.00;;;;;;5068089;28;20400;-69
2023/07/21 07:58:22;;;;;;;2.80;1.03;;;18.90;1.00;;;;;;5083450;28;20586;-69
2023/07/21 08:00:48;;;;;;;2.45;1.00;;;18.90;99.90;;;;;;5067854;28;20411;-69
2023/07/21 08:03:14;;;;;;;1.90;0.83;;;18.90;99.90;;;;;;5067879;28;20440;-70
2023/07/21 08:05:41;;;;;;;2.47;0.88;;;19.00;1.00;;;;;;5083385;28;20483;-69
2023/07/21 08:08:09;;;;;;;2.20;0.93;;;19.20;99.90;;;;;;5067614;28;20406;-69
2023/07/21 08:10:35;;;;;;;2.85;0.95;;;19.20;99.90;;;;;;5049465;28;20420;-69
2023/07/21 08:13:06;;;;;;;1.63;0.93;;;19.30;97.30;;;;;;5067261;28;20411;-70
2023/07/21 08:15:32;;;;;;;2.15;0.88;;;19.30;50.30;;;;;;5067553;28;20483;-70
2023/07/21 08:17:58;;;;;;;2.23;1.00;;;19.30;1.00;;;;;;5067191;28;20499;-69
2023/07/21 08:20:24;;;;;;;3.08;1.23;;;19.30;99.90;;;;;;5049906;28;20988;-69
2023/07/21 08:22:50;;;;;;;2.20;1.40;;;19.20;99.90;;;;;;5067237;28;20432;-69
2023/07/21 08:25:17;;;;;;;2.43;1.43;;;19.20;99.90;;;;;;5050336;28;20935;-69
2023/07/21 08:27:43;;;;;;;3.05;0.90;;;19.30;1.00;;;;;;5083054;28;20411;-70
2023/07/21 08:30:09;;;;;;;2.57;0.70;;;19.50;1.00;;;;;;5070160;28;20396;-70
2023/07/21 08:32:40;;;;;;;2.53;0.70;;;19.80;99.90;;;;;;5086976;28;20921;-70
2023/07/21 08:35:07;;;;;;;2.88;0.80;;;19.90;99.90;;;;;;5053253;28;20400;-70
2023/07/21 08:37:33;;;;;;;2.00;0.90;;;20.00;93.60;;;;;;5086436;28;21353;-69
2023/07/21 08:40:03;;;;;;;4.50;0.97;;;20.10;23.60;;;;;;5071603;28;20411;-69
2023/07/21 08:42:30;;;;;;;2.00;0.67;;;20.10;1.00;;;;;;5053102;28;20423;-70
2023/07/21 08:44:57;;;;;;;1.58;0.63;;;20.10;1.00;;;;;;5053425;28;20415;-70
2023/07/21 08:47:25;;;;;;;1.73;0.68;;;20.00;99.90;;;;;;5071606;28;20411;-69
2023/07/21 08:49:51;;;;;;;0.90;0.37;;;20.00;99.90;;;;;;5071351;28;20412;-69
2023/07/21 08:52:16;;;;;;;1.48;0.70;;;20.00;99.90;;;;;;5053100;28;20414;-69
2023/07/21 08:54:43;;;;;;;1.47;0.53;;;20.10;99.90;;;;;;5071301;28;20486;-69
2023/07/21 08:57:11;;;;;;;1.92;0.60;;;20.10;99.90;;;;;;5070800;28;20399;-69
2023/07/21 08:59:38;;;;;;;2.70;0.70;;;20.20;99.90;;;;;;5071254;28;20448;-69
2023/07/21 09:02:04;;;;;;;2.38;0.80;;;20.30;99.90;;;;;;5070707;28;20427;-70
2023/07/21 09:04:29;;;;;;;1.70;0.50;;;20.50;99.90;;;;;;5071227;28;20650;-69
2023/07/21 09:07:00;;;;;;;1.70;0.70;;;20.60;99.90;;;;;;5070190;28;20411;-69
2023/07/21 09:09:31;;;;;;;1.95;1.00;;;20.70;99.90;;;;;;5071606;28;20400;-69
2023/07/21 09:12:11;;;;;;;1.30;0.50;;;20.80;76.70;;;;;;5070526;28;20411;-70
2023/07/21 09:14:39;;;;;;;1.63;0.57;;;20.80;1.70;;;;;;5052330;28;20855;-69
2023/07/21 09:17:07;;;;;;;1.50;0.50;;;20.80;8.60;;;;;;5070777;28;20460;-69
2023/07/21 09:19:37;;;;;;;1.95;0.70;;;20.80;1.00;;;;;;5035411;28;20411;-69
2023/07/21 09:22:03;;;;;;;1.48;0.47;;;20.90;1.00;;;;;;5070128;28;20435;-70
2023/07/21 09:24:29;;;;;;;1.30;0.60;;;21.00;1.00;;;;;;5070273;28;20487;-69
2023/07/21 09:27:11;;;;;;;1.73;0.60;;;21.10;1.00;;;;;;5086527;28;20490;-69
2023/07/21 09:29:37;;;;;;;1.77;0.60;;;21.20;1.00;;;;;;5035712;28;20412;-69
2023/07/21 09:32:19;;;;;;;2.08;0.60;;;21.30;1.00;;;;;;5085400;28;20407;-69
2023/07/21 09:34:55;;;;;;;1.65;0.50;;;21.30;1.00;;;;;;5042454;28;20925;-69
2023/07/21 09:37:23;;;;;;;2.50;0.52;;;21.40;99.90;;;;;;5070166;28;20480;-69
2023/07/21 09:39:54;;;;;;;1.88;0.75;;;21.40;99.90;;;;;;5069870;28;20399;-69
2023/07/21 09:42:22;;;;;;;1.38;0.50;;;21.40;99.90;;;;;;5070359;28;20432;-69
2023/07/21 09:44:49;;;;;;;2.00;0.43;;;21.60;99.90;;;;;;5052184;28;20412;-69
2023/07/21 09:47:16;;;;;;;1.40;0.50;;;21.80;99.90;;;;;;5070572;28;20404;-69
2023/07/21 09:49:43;;;;;;;1.02;0.40;;;22.00;99.90;;;;;;5070464;28;20518;-69
2023/07/21 09:52:13;;;;;;;1.83;0.40;;;22.10;99.90;;;;;;5069339;28;20469;-69
2023/07/21 09:54:44;;;;;;;3.33;0.60;;;22.30;99.90;;;;;;5070502;28;20399;-69
2023/07/21 09:57:16;;;;;;;1.27;0.30;;;22.20;99.90;;;;;;5069854;28;20412;-67
2023/07/21 09:59:46;;;;;;;0.82;0.30;;;22.00;99.90;;;;;;5069107;28;20396;-68
2023/07/21 10:02:12;;;;;;;1.87;0.50;;;21.70;99.90;;;;;;5072472;28;20457;-68
2023/07/21 10:04:38;;;;;;;1.65;0.40;;;21.60;99.90;;;;;;5068853;28;20400;-68
2023/07/21 10:07:06;;;;;;;2.22;0.60;;;22.00;99.90;;;;;;5057056;28;20403;-69
2023/07/21 10:09:32;;;;;;;1.83;0.52;;;22.50;99.90;;;;;;5068622;28;21003;-68
2023/07/21 10:12:14;;;;;;;2.95;0.50;;;22.70;99.90;;;;;;5068791;28;20407;-68
2023/07/21 10:14:40;;;;;;;1.23;0.60;;;22.70;99.90;;;;;;5068689;28;20469;-68
2023/07/21 10:17:07;;;;;;;1.30;0.60;;;22.60;99.90;;;;;;5075392;28;20409;-68
2023/07/21 10:19:41;;;;;;;2.28;0.70;;;22.60;99.90;;;;;;5031020;28;20448;-68
2023/07/21 10:22:11;;;;;;;5.28;0.60;;;22.50;99.90;;;;;;5068994;28;20489;-68
2023/07/21 10:24:51;;;;;;;2.60;0.57;;;22.30;99.90;;;;;;5068098;28;20487;-68
2023/07/21 10:27:24;;;;;;;2.85;0.70;;;22.30;99.90;;;;;;5050746;28;20404;-68
2023/07/21 10:30:22;;;;;;;2.25;0.80;;;22.20;99.90;;;;;;5056360;28;20495;-70
2023/07/21 10:32:51;;;;;;;2.00;0.70;;;22.20;99.90;;;;;;5067107;28;20473;-68
2023/07/21 10:35:36;;;;;;;1.50;0.60;;;22.30;99.90;;;;;;5068088;28;20812;-68
2023/07/21 10:38:13;;;;;;;2.00;0.60;;;22.50;99.90;;;;;;5058398;28;20407;-70
2023/07/21 10:40:44;;;;;;;1.85;0.60;;;22.60;99.90;;;;;;5049835;28;20535;-70
2023/07/21 10:43:11;;;;;;;2.60;0.50;;;22.70;99.90;;;;;;5050896;28;20420;-70
2023/07/21 10:45:37;;;;;;;2.25;0.50;;;23.00;99.90;;;;;;5034454;28;20411;-70
2023/07/21 10:48:13;;;;;;;2.33;0.60;;;23.30;99.90;;;;;;5051349;28;20406;-68
2023/07/21 10:50:48;;;;;;;1.38;0.40;;;23.40;99.90;;;;;;5050686;28;20404;-68
2023/07/21 10:53:15;;;;;;;1.00;0.40;;;23.30;99.90;;;;;;5050030;28;20415;-68
2023/07/21 10:55:41;;;;;;;1.77;0.67;;;23.00;99.90;;;;;;5051083;28;20884;-68
2023/07/21 10:58:06;;;;;;;1.92;0.60;;;22.80;99.90;;;;;;5050098;28;20506;-68
2023/07/21 11:00:46;;;;;;;3.55;0.80;;;22.70;99.90;;;;;;5051068;28;20471;-68
2023/07/21 11:03:12;;;;;;;1.60;0.70;;;22.50;99.90;;;;;;5069032;28;20528;-68
2023/07/21 11:05:38;;;;;;;2.22;0.65;;;22.40;99.90;;;;;;5051183;28;20989;-68
2023/07/21 11:08:04;;;;;;;2.73;0.63;;;22.40;99.90;;;;;;5050793;28;20408;-68
2023/07/21 11:10:35;;;;;;;1.90;0.60;;;22.30;99.90;;;;;;5050181;28;20904;-68
2023/07/21 11:13:02;;;;;;;1.35;0.50;;;22.30;99.90;;;;;;5068201;28;20408;-68
2023/07/21 11:15:27;;;;;;;1.90;0.60;;;22.30;99.90;;;;;;5068307;28;20458;-68
2023/07/21 11:18:03;;;;;;;1.70;0.73;;;22.20;99.90;;;;;;5067327;28;20434;-68
2023/07/21 11:20:30;;;;;;;1.63;0.70;;;22.20;99.90;;;;;;5067854;28;20429;-68
2023/07/21 11:22:57;;;;;;;1.58;0.50;;;22.20;99.90;;;;;;5050009;28;20925;-68
2023/07/21 11:25:22;;;;;;;1.38;0.50;;;22.20;99.90;;;;;;5068527;28;20400;-68
2023/07/21 11:27:51;;;;;;;1.67;0.70;;;22.20;99.90;;;;;;5067898;28;20479;-67
2023/07/21 11:30:18;;;;;;;1.57;0.70;;;22.30;99.90;;;;;;5068018;28;20538;-68
2023/07/21 11:32:44;;;;;;;1.30;0.70;;;22.30;99.90;;;;;;5033519;28;20468;-68
2023/07/21 11:35:10;;;;;;;1.75;0.57;;;22.30;99.90;;;;;;5068509;28;20406;-68
2023/07/21 11:37:40;;;;;;;2.47;0.73;;;22.30;99.90;;;;;;5067906;28;20931;-68
2023/07/21 11:40:16;;;;;;;2.22;0.47;;;22.30;99.90;;;;;;5068165;28;20407;-68
2023/07/21 11:42:46;;;;;;;2.40;0.70;;;22.30;99.90;;;;;;5056582;28;20431;-69
2023/07/21 11:45:34;;;;;;;2.03;0.77;;;22.20;99.90;;;;;;5067835;28;20410;-68
2023/07/21 11:48:18;;;;;;;1.73;0.60;;;22.20;99.90;;;;;;5083912;28;20872;-68
2023/07/21 11:50:54;;;;;;;5.07;1.15;;;22.10;99.90;;;;;;5067628;28;20967;-68
2023/07/21 11:53:22;;;;;;;2.35;1.05;;;22.00;99.90;;;;;;5049854;28;20404;-68
2023/07/21 11:55:48;;;;;;;3.03;1.30;;;22.00;99.90;;;;;;5067703;28;20396;-68
2023/07/21 11:58:14;;;;;;;2.40;1.10;;;22.20;99.90;;;;;;5068026;28;20400;-68
2023/07/21 12:00:43;;;;;;;3.30;1.20;;;22.30;99.90;;;;;;5068078;28;20400;-68
2023/07/21 12:03:10;;;;;;;2.92;1.10;;;22.40;99.90;;;;;;5049297;28;20427;-68
2023/07/21 12:05:36;;;;;;;2.55;1.20;;;22.60;99.90;;;;;;5067887;28;20901;-68
2023/07/21 12:08:03;;;;;;;2.17;0.98;;;22.80;99.90;;;;;;5067465;28;20922;-68
2023/07/21 12:10:29;;;;;;;2.25;0.93;;;23.10;99.90;;;;;;5067968;28;20897;-68
2023/07/21 12:12:55;;;;;;;2.77;0.97;;;23.50;99.90;;;;;;5067177;28;20946;-68
2023/07/21 12:15:21;;;;;;;1.85;0.90;;;23.60;99.90;;;;;;5067877;28;20511;-68
2023/07/21 12:17:50;;;;;;;1.90;0.90;;;23.50;99.90;;;;;;5067594;28;20449;-68
2023/07/21 12:20:17;;;;;;;2.38;0.95;;;23.40;99.90;;;;;;5083027;28;20553;-68
2023/07/21 12:22:43;;;;;;;2.90;1.08;;;23.20;99.90;;;;;;5066913;28;20440;-68
2023/07/21 12:25:09;;;;;;;3.47;1.10;;;23.00;99.90;;;;;;5067805;28;20452;-68
2023/07/21 12:27:36;;;;;;;6.20;1.70;;;22.90;99.90;;;;;;5049239;28;20410;-68
2023/07/21 12:30:10;;;;;;;8.32;2.35;;;22.60;99.90;;;;;;5066636;28;20412;-68
2023/07/21 12:32:36;;;;;;;6.18;2.17;;;22.30;99.90;;;;;;5082884;28;20407;-70
2023/07/21 12:35:04;;;;;;;5.23;2.13;;;21.80;99.90;;;;;;5067603;28;20965;-70
2023/07/21 12:37:30;;;;;;;4.70;1.65;;;21.20;99.90;;;;;;5067234;28;20403;-70
2023/07/21 12:39:56;;;;;;;6.40;1.95;;;20.80;99.90;;;;;;5049817;28;20538;-70
2023/07/21 12:42:22;;;;;;;6.28;1.83;;;20.40;99.90;;;;;;5049200;28;20439;-70
2023/07/21 12:44:48;;;;;;;7.70;2.17;;;20.10;99.90;;;;;;5067767;28;20478;-68
2023/07/21 12:47:14;;;;;;;9.77;2.20;;;19.80;99.90;;;;;;5067585;28;20533;-68
2023/07/21 12:49:39;;;;;;;10.40;2.63;;;19.60;99.90;;;;;;5066450;28;20407;-68